• Join FlightAware (Why Join?)
  • Login
  • US Flag 
04:41AM EDT


 

Airport Tracker/Info


-or-


 

Live Flight TrackerFlight Track Log ✈ HA312 ✈ 03-Mar-2014 ✈ CYVR - CYYD

Flight Track Log - Related Links

Times and Time Zones

All times are in EST time to prevent confusion due to time zone crossing. See the HA312 flight status page for this flight to view local times or setup timezone preferences in your user account.

Time Position Orientation Groundspeed Altitude Reporting Facility
EST Latitude Longitude Course Direction KTS MPH feet Rate Location/Type
09:34PM 49.1833 -123.2333 334° Northwest 120 138 1,700  Level Vancouver Center
09:35PM 49.1833 -123.2833 270° West 120 138 3,000 1,140 Climbing Vancouver Center
09:36PM 49.2000 -123.3167 307° West 130 150 4,000 1,200 Climbing Vancouver Center
09:37PM 49.2500 -123.3333 348° North 140 161 5,400 1,260 Climbing Vancouver Center
09:38PM 49.5102 -123.4935 327° Northwest  Level FlightAware Approximate
09:38PM 49.2833 -123.3333 360° North 140 161 6,600  Level Vancouver Center
09:39PM 49.5665 -123.5415 334° Northwest  Level FlightAware Approximate
09:39PM 49.3333 -123.3333 360° North 150 173 7,800  Level Vancouver Center
09:40PM 49.3667 -123.3333 360° North 150 173 8,800 1,080 Climbing Vancouver Center
09:41PM 49.4167 -123.3167 12° North 160 184 10,000 1,200 Climbing Vancouver Center
09:42PM 49.4500 -123.3167 360° North 160 184 11,200 1,020 Climbing Vancouver Center
09:43PM 49.5000 -123.2833 23° Northeast 170 196 12,100 900 Climbing Vancouver Center
09:44PM 49.5500 -123.3167 337° Northwest 170 196 13,100 960 Climbing Vancouver Center
09:45PM 49.5833 -123.3333 342° North 160 184 14,100 1,020 Climbing Vancouver Center
09:46PM 49.6333 -123.3667 337° Northwest 170 196 15,200 1,020 Climbing Vancouver Center
09:47PM 49.6833 -123.3833 348° North 170 196 16,200 900 Climbing Vancouver Center
09:48PM 49.7167 -123.4167 327° Northwest 170 196 17,100 900 Climbing Vancouver Center
09:49PM 49.7667 -123.4333 348° North 180 207 18,100 840 Climbing Vancouver Center
09:50PM 49.8167 -123.4667 337° Northwest 180 207 18,800 720 Climbing Vancouver Center
09:51PM 49.8667 -123.5167 327° Northwest 180 207 19,600 600 Climbing Vancouver Center
09:52PM 49.9000 -123.5333 342° North 190 219 20,000 180 Climbing Vancouver Center
09:53PM 49.9667 -123.5667 342° North 210 242 20,000  Level Vancouver Center
09:54PM 50.0167 -123.6167 327° Northwest 230 265 20,000  Level Vancouver Center
09:55PM 50.0833 -123.6500 342° North 230 265 20,000  Level Vancouver Center
09:56PM 50.1333 -123.6667 348° North 230 265 20,000  Level Vancouver Center
09:57PM 50.2000 -123.7167 334° Northwest 230 265 20,000  Level Vancouver Center
09:58PM 50.2667 -123.7500 342° North 230 265 20,000  Level Vancouver Center
09:59PM 50.3167 -123.8000 327° Northwest 230 265 20,000  Level Vancouver Center
10:00PM 50.3833 -123.8167 351° North 240 276 20,000  Level Vancouver Center
10:01PM 50.4333 -123.8833 320° Northwest 240 276 20,000  Level Vancouver Center
10:02PM 50.5000 -123.9000 351° North 240 276 20,000  Level Vancouver Center
10:03PM 50.5667 -123.9500 335° Northwest 240 276 20,000  Level Vancouver Center
10:04PM 50.6167 -123.9833 337° Northwest 230 265 20,000  Level Vancouver Center
10:05PM 50.6833 -124.0333 335° Northwest 240 276 20,000  Level Vancouver Center
10:06PM 50.7500 -124.0667 342° North 230 265 20,000  Level Vancouver Center
10:07PM 50.8167 -124.1167 335° Northwest 240 276 20,000  Level Vancouver Center
10:08PM 50.8667 -124.1500 337° Northwest 230 265 20,000  Level Vancouver Center
10:09PM 50.9333 -124.2000 335° Northwest 240 276 20,000  Level Vancouver Center
10:10PM 51.0000 -124.2167 351° North 250 288 20,000  Level Vancouver Center
10:11PM 51.0500 -124.2833 320° Northwest 230 265 20,000  Level Vancouver Center
10:12PM 51.1167 -124.3000 351° North 240 276 20,000  Level Vancouver Center
10:13PM 51.1833 -124.3500 335° Northwest 240 276 20,000  Level Vancouver Center
10:14PM 51.2333 -124.3833 337° Northwest 240 276 20,000  Level Vancouver Center
10:15PM 51.3000 -124.4167 343° North 240 276 20,000  Level Vancouver Center
10:16PM 51.3667 -124.4667 335° Northwest 240 276 20,000  Level Vancouver Center
10:17PM 51.4167 -124.5000 337° Northwest 230 265 20,000  Level Vancouver Center
10:18PM 51.4833 -124.5500 335° Northwest 220 253 20,000  Level Vancouver Center
10:19PM 51.5333 -124.5833 337° Northwest 240 276 20,000  Level Vancouver Center
10:20PM 51.6000 -124.6333 335° Northwest 240 276 20,000  Level Vancouver Center
10:21PM 51.6667 -124.6667 343° North 240 276 20,000  Level Vancouver Center
10:22PM 51.7167 -124.7167 328° Northwest 230 265 20,000  Level Vancouver Center
10:23PM 51.7833 -124.7500 343° North 230 265 20,000  Level Vancouver Center
10:24PM 51.8333 -124.8000 328° Northwest 230 265 20,000  Level Vancouver Center
10:25PM 51.9000 -124.8333 343° North 230 265 20,000  Level Vancouver Center
10:26PM 51.9667 -124.8500 351° North 240 276 20,000  Level Vancouver Center
10:27PM 52.0167 -124.9167 321° Northwest 240 276 20,000  Level Vancouver Center
10:28PM 52.0833 -124.9667 335° Northwest 240 276 20,000  Level Vancouver Center
10:29PM 52.1500 -125.0000 343° North 240 276 20,000  Level Vancouver Center
10:30PM 52.2167 -125.0500 335° Northwest 240 276 20,000  Level Vancouver Center
10:31PM 52.2667 -125.0833 338° Northwest 240 276 20,000  Level Vancouver Center
10:32PM 52.3333 -125.1167 343° North 240 276 20,000  Level Vancouver Center
10:33PM 52.4000 -125.1667 335° Northwest 230 265 20,000  Level Vancouver Center
10:34PM 52.4500 -125.2000 338° Northwest 230 265 20,000  Level Vancouver Center
10:35PM 52.5167 -125.2500 335° Northwest 240 276 20,000  Level Vancouver Center
10:36PM 52.5667 -125.2833 338° Northwest 240 276 20,000  Level Vancouver Center
10:37PM 52.6333 -125.3333 336° Northwest 240 276 20,000  Level Vancouver Center
10:38PM 52.7000 -125.3667 343° North 240 276 20,000  Level Vancouver Center
10:39PM 52.7500 -125.4167 329° Northwest 240 276 20,000  Level Vancouver Center
10:40PM 52.8167 -125.4500 343° North 240 276 20,000  Level Vancouver Center
10:41PM 52.8833 -125.5167 329° Northwest 240 276 20,000  Level Vancouver Center
10:42PM 52.9500 -125.5500 343° North 250 288 20,000  Level Vancouver Center
10:43PM 53.0167 -125.6000 336° Northwest 250 288 20,000  Level Vancouver Center
10:44PM 53.0667 -125.6333 338° Northwest 250 288 20,000  Level Vancouver Center
10:45PM 53.1333 -125.6833 336° Northwest 250 288 20,000  Level Vancouver Center
10:46PM 53.2000 -125.7167 343° North 250 288 20,000  Level Vancouver Center
10:47PM 53.2667 -125.7833 329° Northwest 250 288 20,000  Level Vancouver Center
10:48PM 53.3333 -125.8333 336° Northwest 240 276 20,000  Level Vancouver Center
10:49PM 53.3833 -125.8667 338° Northwest 240 276 20,000  Level Vancouver Center
10:50PM 53.4500 -125.9333 329° Northwest 240 276 20,000  Level Vancouver Center
10:51PM 53.5167 -125.9500 352° North 250 288 20,000  Level Vancouver Center
10:52PM 53.5833 -126.0167 329° Northwest 250 288 20,000 -180 Level Vancouver Center
10:53PM 53.6333 -126.0500 338° Northwest 250 288 19,700 -480 Descending Vancouver Center
10:54PM 53.7000 -126.1167 329° Northwest 260 299 19,100 -600 Descending Vancouver Center
10:55PM 53.7667 -126.1667 336° Northwest 270 311 18,500 -600 Descending Vancouver Center
10:56PM 53.8333 -126.2000 344° North 270 311 17,900 -660 Descending Vancouver Center
10:57PM 53.9167 -126.2667 335° Northwest 270 311 17,200 -420 Descending Vancouver Center
11:03PM 54.3500 -126.6000 322° Northwest 240 276 15,000 -360 Descending Vancouver Center
11:04PM 54.4167 -126.6333 344° North 250 288 14,600 -1,080 Descending Vancouver Center
11:05PM 54.4667 -126.7167 316° Northwest 260 299 12,900 -1,740 Descending Vancouver Center
11:06PM 54.4077 -126.6079 341° North  Level FlightAware Approximate
11:07PM 54.4615 -126.6505 319° Northwest  Level FlightAware Approximate
11:07PM 54.5284 -126.7660 335° Northwest  Level FlightAware Approximate
11:08PM 54.5067 -126.7183 319° Northwest  Level FlightAware Approximate
11:09PM 54.5521 -126.7861 322° Northwest  Level FlightAware Approximate
11:14PM 54.8167 -127.1667 330° Northwest  Level FlightAware Approximate
11:15PM 54.8247 -127.1828 330° Northwest  Level Estimated
11:16PM 54.8247 -127.1828 330° Northwest  Level Estimated
11:17PM 54.8247 -127.1828 330° Northwest  Level Estimated
11:18PM 54.8247 -127.1828 330° Northwest  Level Estimated
11:19PM 54.8247 -127.1828 330° Northwest  Level Estimated